sensor_id;sensor_type;location;lat;lon;timestamp;temperature;humidity
20242;DHT22;10279;46.388;8.116;2023-11-21T00:01:17;9.00;99.90
20242;DHT22;10279;46.388;8.116;2023-11-21T00:03:44;9.00;99.90
20242;DHT22;10279;46.388;8.116;2023-11-21T00:06:11;9.00;99.90
20242;DHT22;10279;46.388;8.116;2023-11-21T00:08:39;9.00;99.90
20242;DHT22;10279;46.388;8.116;2023-11-21T00:11:06;9.00;99.90
20242;DHT22;10279;46.388;8.116;2023-11-21T00:13:33;8.90;99.90
20242;DHT22;10279;46.388;8.116;2023-11-21T00:16:02;8.90;99.90
20242;DHT22;10279;46.388;8.116;2023-11-21T00:18:29;8.90;99.90
20242;DHT22;10279;46.388;8.116;2023-11-21T00:20:56;9.00;99.90
20242;DHT22;10279;46.388;8.116;2023-11-21T00:23:25;9.00;99.90
20242;DHT22;10279;46.388;8.116;2023-11-21T00:25:52;8.90;99.90
20242;DHT22;10279;46.388;8.116;2023-11-21T00:28:20;8.90;99.90
20242;DHT22;10279;46.388;8.116;2023-11-21T00:30:47;8.90;99.90
20242;DHT22;10279;46.388;8.116;2023-11-21T00:33:14;8.80;99.90
20242;DHT22;10279;46.388;8.116;2023-11-21T00:35:41;8.80;99.90
20242;DHT22;10279;46.388;8.116;2023-11-21T00:38:08;8.80;99.90
20242;DHT22;10279;46.388;8.116;2023-11-21T00:40:35;8.90;99.90
20242;DHT22;10279;46.388;8.116;2023-11-21T00:43:02;8.80;99.90
20242;DHT22;10279;46.388;8.116;2023-11-21T00:45:35;8.80;99.90
20242;DHT22;10279;46.388;8.116;2023-11-21T00:48:05;8.90;99.90
20242;DHT22;10279;46.388;8.116;2023-11-21T00:50:35;8.90;99.90
20242;DHT22;10279;46.388;8.116;2023-11-21T00:53:05;8.90;99.90
20242;DHT22;10279;46.388;8.116;2023-11-21T00:55:38;8.80;99.90
20242;DHT22;10279;46.388;8.116;2023-11-21T00:58:10;8.80;99.90
20242;DHT22;10279;46.388;8.116;2023-11-21T01:00:43;8.70;99.90
20242;DHT22;10279;46.388;8.116;2023-11-21T01:03:14;8.70;99.90
20242;DHT22;10279;46.388;8.116;2023-11-21T01:05:46;8.60;99.90
20242;DHT22;10279;46.388;8.116;2023-11-21T01:08:19;8.60;99.90
20242;DHT22;10279;46.388;8.116;2023-11-21T01:10:51;8.60;99.90
20242;DHT22;10279;46.388;8.116;2023-11-21T01:13:27;8.70;99.90
20242;DHT22;10279;46.388;8.116;2023-11-21T01:16:01;8.70;99.90
20242;DHT22;10279;46.388;8.116;2023-11-21T01:18:31;8.70;99.90
20242;DHT22;10279;46.388;8.116;2023-11-21T01:21:04;8.70;99.90
20242;DHT22;10279;46.388;8.116;2023-11-21T01:23:34;8.70;99.90
20242;DHT22;10279;46.388;8.116;2023-11-21T01:26:05;8.50;99.90
20242;DHT22;10279;46.388;8.116;2023-11-21T01:28:34;8.20;99.90
20242;DHT22;10279;46.388;8.116;2023-11-21T01:31:07;8.20;99.90
20242;DHT22;10279;46.388;8.116;2023-11-21T01:33:38;8.10;99.90
20242;DHT22;10279;46.388;8.116;2023-11-21T01:36:10;8.20;99.90
20242;DHT22;10279;46.388;8.116;2023-11-21T01:38:41;8.20;99.90
20242;DHT22;10279;46.388;8.116;2023-11-21T01:41:12;8.20;99.90
20242;DHT22;10279;46.388;8.116;2023-11-21T01:43:43;8.20;99.90
20242;DHT22;10279;46.388;8.116;2023-11-21T01:46:16;8.20;99.90
20242;DHT22;10279;46.388;8.116;2023-11-21T01:48:47;8.30;99.90
20242;DHT22;10279;46.388;8.116;2023-11-21T01:51:18;8.30;99.90
20242;DHT22;10279;46.388;8.116;2023-11-21T01:53:51;8.30;99.90
20242;DHT22;10279;46.388;8.116;2023-11-21T01:56:22;8.40;99.90
20242;DHT22;10279;46.388;8.116;2023-11-21T01:58:53;8.50;99.90
20242;DHT22;10279;46.388;8.116;2023-11-21T02:01:22;8.50;99.90
20242;DHT22;10279;46.388;8.116;2023-11-21T02:03:57;8.50;99.90
20242;DHT22;10279;46.388;8.116;2023-11-21T02:06:30;8.50;99.90
20242;DHT22;10279;46.388;8.116;2023-11-21T02:09:03;8.30;99.90
20242;DHT22;10279;46.388;8.116;2023-11-21T02:11:35;8.20;99.90
20242;DHT22;10279;46.388;8.116;2023-11-21T02:14:02;8.10;99.90
20242;DHT22;10279;46.388;8.116;2023-11-21T02:16:30;8.10;99.90
20242;DHT22;10279;46.388;8.116;2023-11-21T02:18:58;8.10;99.90
20242;DHT22;10279;46.388;8.116;2023-11-21T02:21:26;8.20;99.90
20242;DHT22;10279;46.388;8.116;2023-11-21T02:23:53;8.20;99.90
20242;DHT22;10279;46.388;8.116;2023-11-21T02:26:22;8.10;99.90
20242;DHT22;10279;46.388;8.116;2023-11-21T02:28:49;8.20;99.90
20242;DHT22;10279;46.388;8.116;2023-11-21T02:31:16;8.20;99.90
20242;DHT22;10279;46.388;8.116;2023-11-21T02:33:43;8.30;99.90
20242;DHT22;10279;46.388;8.116;2023-11-21T02:36:11;8.20;99.90
20242;DHT22;10279;46.388;8.116;2023-11-21T02:38:38;8.20;99.90
20242;DHT22;10279;46.388;8.116;2023-11-21T02:41:05;8.20;99.90
20242;DHT22;10279;46.388;8.116;2023-11-21T02:43:32;8.10;99.90
20242;DHT22;10279;46.388;8.116;2023-11-21T02:45:59;8.00;99.90
20242;DHT22;10279;46.388;8.116;2023-11-21T02:48:26;7.80;99.90
20242;DHT22;10279;46.388;8.116;2023-11-21T02:50:53;7.70;99.90
20242;DHT22;10279;46.388;8.116;2023-11-21T02:53:20;7.60;99.90
20242;DHT22;10279;46.388;8.116;2023-11-21T02:55:47;7.60;99.90
20242;DHT22;10279;46.388;8.116;2023-11-21T02:58:15;7.60;99.90
20242;DHT22;10279;46.388;8.116;2023-11-21T03:00:42;7.60;99.90
20242;DHT22;10279;46.388;8.116;2023-11-21T03:03:09;7.70;99.90
20242;DHT22;10279;46.388;8.116;2023-11-21T03:05:36;7.70;99.90
20242;DHT22;10279;46.388;8.116;2023-11-21T03:08:04;7.70;99.90
20242;DHT22;10279;46.388;8.116;2023-11-21T03:10:32;7.80;99.90
20242;DHT22;10279;46.388;8.116;2023-11-21T03:13:00;7.90;99.90
20242;DHT22;10279;46.388;8.116;2023-11-21T03:15:27;7.90;99.90
20242;DHT22;10279;46.388;8.116;2023-11-21T03:17:54;8.00;99.90
20242;DHT22;10279;46.388;8.116;2023-11-21T03:20:21;8.00;99.90
20242;DHT22;10279;46.388;8.116;2023-11-21T03:22:48;8.00;99.90
20242;DHT22;10279;46.388;8.116;2023-11-21T03:25:15;8.10;99.90
20242;DHT22;10279;46.388;8.116;2023-11-21T03:27:44;8.10;99.90
20242;DHT22;10279;46.388;8.116;2023-11-21T03:30:11;8.00;99.90
20242;DHT22;10279;46.388;8.116;2023-11-21T03:32:38;7.90;99.90
20242;DHT22;10279;46.388;8.116;2023-11-21T03:35:06;7.70;99.90
20242;DHT22;10279;46.388;8.116;2023-11-21T03:37:34;7.50;99.90
20242;DHT22;10279;46.388;8.116;2023-11-21T03:40:01;7.30;99.90
20242;DHT22;10279;46.388;8.116;2023-11-21T03:42:31;7.20;99.90
20242;DHT22;10279;46.388;8.116;2023-11-21T03:44:58;7.10;99.90
20242;DHT22;10279;46.388;8.116;2023-11-21T03:47:27;7.10;99.90
20242;DHT22;10279;46.388;8.116;2023-11-21T03:49:54;7.00;99.90
20242;DHT22;10279;46.388;8.116;2023-11-21T03:52:22;6.90;99.90
20242;DHT22;10279;46.388;8.116;2023-11-21T03:54:49;7.00;99.90
20242;DHT22;10279;46.388;8.116;2023-11-21T03:57:16;7.00;99.90
20242;DHT22;10279;46.388;8.116;2023-11-21T03:59:43;6.90;99.90
20242;DHT22;10279;46.388;8.116;2023-11-21T04:02:10;6.90;99.90
20242;DHT22;10279;46.388;8.116;2023-11-21T04:04:37;6.80;99.90
20242;DHT22;10279;46.388;8.116;2023-11-21T04:07:05;6.80;99.90
20242;DHT22;10279;46.388;8.116;2023-11-21T04:09:33;6.80;99.90
20242;DHT22;10279;46.388;8.116;2023-11-21T04:12:00;6.90;99.90
20242;DHT22;10279;46.388;8.116;2023-11-21T04:14:27;7.00;99.90
20242;DHT22;10279;46.388;8.116;2023-11-21T04:16:54;7.10;99.90
20242;DHT22;10279;46.388;8.116;2023-11-21T04:19:22;7.20;99.90
20242;DHT22;10279;46.388;8.116;2023-11-21T04:21:49;7.30;99.90
20242;DHT22;10279;46.388;8.116;2023-11-21T04:24:17;7.40;99.90
20242;DHT22;10279;46.388;8.116;2023-11-21T04:26:44;7.40;99.90
20242;DHT22;10279;46.388;8.116;2023-11-21T04:29:12;7.50;99.90
20242;DHT22;10279;46.388;8.116;2023-11-21T04:31:39;7.50;99.90
20242;DHT22;10279;46.388;8.116;2023-11-21T04:34:06;7.60;99.90
20242;DHT22;10279;46.388;8.116;2023-11-21T04:36:33;7.60;99.90
20242;DHT22;10279;46.388;8.116;2023-11-21T04:39:01;7.70;99.90
20242;DHT22;10279;46.388;8.116;2023-11-21T04:41:29;7.70;99.90
20242;DHT22;10279;46.388;8.116;2023-11-21T04:43:58;7.60;99.90
20242;DHT22;10279;46.388;8.116;2023-11-21T04:46:28;7.60;99.90
20242;DHT22;10279;46.388;8.116;2023-11-21T04:48:55;7.50;99.90
20242;DHT22;10279;46.388;8.116;2023-11-21T04:51:22;7.40;99.90
20242;DHT22;10279;46.388;8.116;2023-11-21T04:53:49;7.40;99.90
20242;DHT22;10279;46.388;8.116;2023-11-21T04:56:16;7.40;99.90
20242;DHT22;10279;46.388;8.116;2023-11-21T04:58:44;7.40;99.90
20242;DHT22;10279;46.388;8.116;2023-11-21T05:01:11;7.30;99.90
20242;DHT22;10279;46.388;8.116;2023-11-21T05:03:39;7.20;99.90
20242;DHT22;10279;46.388;8.116;2023-11-21T05:06:06;7.10;99.90
20242;DHT22;10279;46.388;8.116;2023-11-21T05:08:36;7.00;99.90
20242;DHT22;10279;46.388;8.116;2023-11-21T05:11:04;6.80;99.90
20242;DHT22;10279;46.388;8.116;2023-11-21T05:13:32;6.80;99.90
20242;DHT22;10279;46.388;8.116;2023-11-21T05:16:00;6.80;99.90
20242;DHT22;10279;46.388;8.116;2023-11-21T05:18:30;6.80;99.90
20242;DHT22;10279;46.388;8.116;2023-11-21T05:20:58;6.70;99.90
20242;DHT22;10279;46.388;8.116;2023-11-21T05:23:25;6.70;99.90
20242;DHT22;10279;46.388;8.116;2023-11-21T05:25:52;6.80;99.90
20242;DHT22;10279;46.388;8.116;2023-11-21T05:28:19;6.80;99.90
20242;DHT22;10279;46.388;8.116;2023-11-21T05:30:46;6.80;99.90
20242;DHT22;10279;46.388;8.116;2023-11-21T05:33:14;6.70;99.90
20242;DHT22;10279;46.388;8.116;2023-11-21T05:35:41;6.70;99.90
20242;DHT22;10279;46.388;8.116;2023-11-21T05:38:08;6.70;99.90
20242;DHT22;10279;46.388;8.116;2023-11-21T05:40:35;6.80;99.90
20242;DHT22;10279;46.388;8.116;2023-11-21T05:43:04;6.80;99.90
20242;DHT22;10279;46.388;8.116;2023-11-21T05:45:32;6.80;99.90
20242;DHT22;10279;46.388;8.116;2023-11-21T05:47:59;6.90;99.90
20242;DHT22;10279;46.388;8.116;2023-11-21T05:50:26;6.90;99.90
20242;DHT22;10279;46.388;8.116;2023-11-21T05:52:53;7.00;99.90
20242;DHT22;10279;46.388;8.116;2023-11-21T05:55:22;7.10;99.90
20242;DHT22;10279;46.388;8.116;2023-11-21T05:57:52;7.10;99.90
20242;DHT22;10279;46.388;8.116;2023-11-21T06:00:20;7.20;99.90
20242;DHT22;10279;46.388;8.116;2023-11-21T06:02:53;7.30;99.90
20242;DHT22;10279;46.388;8.116;2023-11-21T06:05:23;7.20;99.90
20242;DHT22;10279;46.388;8.116;2023-11-21T06:07:55;7.20;99.90
20242;DHT22;10279;46.388;8.116;2023-11-21T06:10:27;7.20;99.90
20242;DHT22;10279;46.388;8.116;2023-11-21T06:12:55;7.20;99.90
20242;DHT22;10279;46.388;8.116;2023-11-21T06:15:23;7.20;99.90
20242;DHT22;10279;46.388;8.116;2023-11-21T06:17:51;7.30;99.90
20242;DHT22;10279;46.388;8.116;2023-11-21T06:20:22;7.40;99.90
20242;DHT22;10279;46.388;8.116;2023-11-21T06:22:50;7.40;99.90
20242;DHT22;10279;46.388;8.116;2023-11-21T06:25:18;7.40;99.90
20242;DHT22;10279;46.388;8.116;2023-11-21T06:27:47;7.40;99.90
20242;DHT22;10279;46.388;8.116;2023-11-21T06:30:14;7.50;99.90
20242;DHT22;10279;46.388;8.116;2023-11-21T06:32:43;7.50;99.90
20242;DHT22;10279;46.388;8.116;2023-11-21T06:35:15;7.50;99.90
20242;DHT22;10279;46.388;8.116;2023-11-21T06:37:44;7.50;99.90
20242;DHT22;10279;46.388;8.116;2023-11-21T06:40:17;7.60;99.90
20242;DHT22;10279;46.388;8.116;2023-11-21T06:42:46;7.60;99.90
20242;DHT22;10279;46.388;8.116;2023-11-21T06:45:15;7.70;99.90
20242;DHT22;10279;46.388;8.116;2023-11-21T06:47:43;7.60;99.90
20242;DHT22;10279;46.388;8.116;2023-11-21T06:50:10;7.60;99.90
20242;DHT22;10279;46.388;8.116;2023-11-21T06:52:38;7.60;99.90
20242;DHT22;10279;46.388;8.116;2023-11-21T06:55:06;7.60;99.90
20242;DHT22;10279;46.388;8.116;2023-11-21T06:57:36;7.70;99.90
20242;DHT22;10279;46.388;8.116;2023-11-21T07:00:04;7.70;99.90
20242;DHT22;10279;46.388;8.116;2023-11-21T07:02:32;7.70;99.90
20242;DHT22;10279;46.388;8.116;2023-11-21T07:04:59;7.70;99.90
20242;DHT22;10279;46.388;8.116;2023-11-21T07:07:27;7.70;99.90
20242;DHT22;10279;46.388;8.116;2023-11-21T07:09:55;7.70;99.90
20242;DHT22;10279;46.388;8.116;2023-11-21T07:12:22;7.50;99.90
20242;DHT22;10279;46.388;8.116;2023-11-21T07:14:50;7.20;99.90
20242;DHT22;10279;46.388;8.116;2023-11-21T07:17:17;6.90;99.90
20242;DHT22;10279;46.388;8.116;2023-11-21T07:19:45;6.80;99.90
20242;DHT22;10279;46.388;8.116;2023-11-21T07:22:12;6.80;99.90
20242;DHT22;10279;46.388;8.116;2023-11-21T07:24:42;6.90;99.90
20242;DHT22;10279;46.388;8.116;2023-11-21T07:27:09;6.90;99.90
20242;DHT22;10279;46.388;8.116;2023-11-21T07:29:36;6.90;99.90
20242;DHT22;10279;46.388;8.116;2023-11-21T07:32:04;7.10;99.90
20242;DHT22;10279;46.388;8.116;2023-11-21T07:34:32;7.20;99.90
20242;DHT22;10279;46.388;8.116;2023-11-21T07:36:59;7.20;99.90
20242;DHT22;10279;46.388;8.116;2023-11-21T07:39:27;7.20;99.90
20242;DHT22;10279;46.388;8.116;2023-11-21T07:41:57;7.30;99.90
20242;DHT22;10279;46.388;8.116;2023-11-21T07:44:24;7.30;99.90
20242;DHT22;10279;46.388;8.116;2023-11-21T07:46:52;7.40;99.90
20242;DHT22;10279;46.388;8.116;2023-11-21T07:49:24;7.40;99.90
20242;DHT22;10279;46.388;8.116;2023-11-21T07:51:53;7.30;99.90
20242;DHT22;10279;46.388;8.116;2023-11-21T07:54:20;7.20;99.90
20242;DHT22;10279;46.388;8.116;2023-11-21T07:56:48;7.30;99.90
20242;DHT22;10279;46.388;8.116;2023-11-21T07:59:15;7.30;99.90
20242;DHT22;10279;46.388;8.116;2023-11-21T08:01:44;7.40;99.90
20242;DHT22;10279;46.388;8.116;2023-11-21T08:04:12;7.50;99.90
20242;DHT22;10279;46.388;8.116;2023-11-21T08:06:40;7.50;99.90
20242;DHT22;10279;46.388;8.116;2023-11-21T08:09:08;7.60;99.90
20242;DHT22;10279;46.388;8.116;2023-11-21T08:11:36;7.60;99.90
20242;DHT22;10279;46.388;8.116;2023-11-21T08:14:06;7.70;99.90
20242;DHT22;10279;46.388;8.116;2023-11-21T08:16:33;7.50;99.90
20242;DHT22;10279;46.388;8.116;2023-11-21T08:19:00;7.40;99.90
20242;DHT22;10279;46.388;8.116;2023-11-21T08:21:27;7.40;99.90
20242;DHT22;10279;46.388;8.116;2023-11-21T08:23:56;7.40;99.90
20242;DHT22;10279;46.388;8.116;2023-11-21T08:26:23;7.20;99.90
20242;DHT22;10279;46.388;8.116;2023-11-21T08:28:50;7.10;99.90
20242;DHT22;10279;46.388;8.116;2023-11-21T08:31:26;7.00;99.90
20242;DHT22;10279;46.388;8.116;2023-11-21T08:33:53;7.00;99.90
20242;DHT22;10279;46.388;8.116;2023-11-21T08:36:23;7.00;99.90
20242;DHT22;10279;46.388;8.116;2023-11-21T08:38:51;7.20;99.90
20242;DHT22;10279;46.388;8.116;2023-11-21T08:41:19;7.30;99.90
20242;DHT22;10279;46.388;8.116;2023-11-21T08:43:49;7.40;99.90
20242;DHT22;10279;46.388;8.116;2023-11-21T08:46:17;7.10;99.90
20242;DHT22;10279;46.388;8.116;2023-11-21T08:48:45;6.70;99.90
20242;DHT22;10279;46.388;8.116;2023-11-21T08:51:12;6.60;99.90
20242;DHT22;10279;46.388;8.116;2023-11-21T08:53:41;6.60;99.90
20242;DHT22;10279;46.388;8.116;2023-11-21T08:56:12;6.60;99.90
20242;DHT22;10279;46.388;8.116;2023-11-21T08:58:39;6.50;99.90
20242;DHT22;10279;46.388;8.116;2023-11-21T09:01:06;6.50;99.90
20242;DHT22;10279;46.388;8.116;2023-11-21T09:03:34;6.40;99.90
20242;DHT22;10279;46.388;8.116;2023-11-21T09:06:02;6.50;99.90
20242;DHT22;10279;46.388;8.116;2023-11-21T09:08:30;6.50;99.90
20242;DHT22;10279;46.388;8.116;2023-11-21T09:10:58;6.40;99.90
20242;DHT22;10279;46.388;8.116;2023-11-21T09:13:26;6.20;99.90
20242;DHT22;10279;46.388;8.116;2023-11-21T09:15:53;6.20;99.90
20242;DHT22;10279;46.388;8.116;2023-11-21T09:18:20;6.20;99.90
20242;DHT22;10279;46.388;8.116;2023-11-21T09:20:48;6.20;99.90
20242;DHT22;10279;46.388;8.116;2023-11-21T09:23:15;6.30;99.90
20242;DHT22;10279;46.388;8.116;2023-11-21T09:25:42;6.40;99.90
20242;DHT22;10279;46.388;8.116;2023-11-21T09:28:13;6.50;99.90
20242;DHT22;10279;46.388;8.116;2023-11-21T09:30:40;6.60;99.90
20242;DHT22;10279;46.388;8.116;2023-11-21T09:33:08;6.70;99.90
20242;DHT22;10279;46.388;8.116;2023-11-21T09:35:38;6.80;99.90
20242;DHT22;10279;46.388;8.116;2023-11-21T09:38:05;6.90;99.90
20242;DHT22;10279;46.388;8.116;2023-11-21T09:40:37;6.90;99.90
20242;DHT22;10279;46.388;8.116;2023-11-21T09:43:16;7.00;99.90
20242;DHT22;10279;46.388;8.116;2023-11-21T09:45:46;7.10;99.90
20242;DHT22;10279;46.388;8.116;2023-11-21T09:48:17;7.10;99.90
20242;DHT22;10279;46.388;8.116;2023-11-21T09:50:47;7.20;99.90
20242;DHT22;10279;46.388;8.116;2023-11-21T09:53:19;7.30;99.90
20242;DHT22;10279;46.388;8.116;2023-11-21T09:55:52;7.40;99.90
20242;DHT22;10279;46.388;8.116;2023-11-21T09:58:20;7.40;99.90
20242;DHT22;10279;46.388;8.116;2023-11-21T10:00:52;7.40;99.90
20242;DHT22;10279;46.388;8.116;2023-11-21T10:03:20;7.40;99.90
20242;DHT22;10279;46.388;8.116;2023-11-21T10:05:50;7.40;99.90
20242;DHT22;10279;46.388;8.116;2023-11-21T10:08:17;7.20;99.90
20242;DHT22;10279;46.388;8.116;2023-11-21T10:10:51;6.90;99.90
20242;DHT22;10279;46.388;8.116;2023-11-21T10:13:20;7.00;99.90
20242;DHT22;10279;46.388;8.116;2023-11-21T10:15:52;7.00;99.90
20242;DHT22;10279;46.388;8.116;2023-11-21T10:18:20;7.00;99.90
20242;DHT22;10279;46.388;8.116;2023-11-21T10:20:50;7.00;99.90
20242;DHT22;10279;46.388;8.116;2023-11-21T10:23:24;7.00;99.90
20242;DHT22;10279;46.388;8.116;2023-11-21T10:25:52;7.10;99.90
20242;DHT22;10279;46.388;8.116;2023-11-21T10:28:21;7.30;99.90
20242;DHT22;10279;46.388;8.116;2023-11-21T10:30:48;7.40;99.90
20242;DHT22;10279;46.388;8.116;2023-11-21T10:33:16;7.20;99.90
20242;DHT22;10279;46.388;8.116;2023-11-21T10:35:45;7.30;99.90
20242;DHT22;10279;46.388;8.116;2023-11-21T10:38:22;7.40;99.90
20242;DHT22;10279;46.388;8.116;2023-11-21T10:40:51;7.40;99.90
20242;DHT22;10279;46.388;8.116;2023-11-21T10:43:19;7.30;99.90
20242;DHT22;10279;46.388;8.116;2023-11-21T10:45:46;7.20;99.90
20242;DHT22;10279;46.388;8.116;2023-11-21T10:48:15;7.10;99.90
20242;DHT22;10279;46.388;8.116;2023-11-21T10:50:46;7.20;99.90
20242;DHT22;10279;46.388;8.116;2023-11-21T10:53:14;7.30;99.90
20242;DHT22;10279;46.388;8.116;2023-11-21T10:55:42;7.30;99.90
20242;DHT22;10279;46.388;8.116;2023-11-21T10:58:13;7.30;99.90
20242;DHT22;10279;46.388;8.116;2023-11-21T11:00:41;7.40;99.90
20242;DHT22;10279;46.388;8.116;2023-11-21T11:03:09;7.40;99.90
20242;DHT22;10279;46.388;8.116;2023-11-21T11:05:44;7.40;99.90
20242;DHT22;10279;46.388;8.116;2023-11-21T11:08:21;7.30;99.90
20242;DHT22;10279;46.388;8.116;2023-11-21T11:10:55;7.20;99.90
20242;DHT22;10279;46.388;8.116;2023-11-21T11:13:23;7.00;99.90
20242;DHT22;10279;46.388;8.116;2023-11-21T11:15:51;7.10;99.90
20242;DHT22;10279;46.388;8.116;2023-11-21T11:18:22;7.10;99.90
20242;DHT22;10279;46.388;8.116;2023-11-21T11:20:52;7.00;99.90
20242;DHT22;10279;46.388;8.116;2023-11-21T11:23:41;7.00;99.90
20242;DHT22;10279;46.388;8.116;2023-11-21T11:26:38;7.00;99.90
20242;DHT22;10279;46.388;8.116;2023-11-21T11:29:23;7.30;99.90
20242;DHT22;10279;46.388;8.116;2023-11-21T11:34:48;7.50;99.90
20242;DHT22;10279;46.388;8.116;2023-11-21T11:37:20;7.40;99.90
20242;DHT22;10279;46.388;8.116;2023-11-21T11:39:49;7.40;99.90
20242;DHT22;10279;46.388;8.116;2023-11-21T11:42:19;7.40;99.90
20242;DHT22;10279;46.388;8.116;2023-11-21T11:44:50;7.40;99.90
20242;DHT22;10279;46.388;8.116;2023-11-21T11:50:10;7.40;99.90
20242;DHT22;10279;46.388;8.116;2023-11-21T11:52:48;7.30;99.90
20242;DHT22;10279;46.388;8.116;2023-11-21T11:55:19;7.20;99.90
20242;DHT22;10279;46.388;8.116;2023-11-21T11:57:52;7.10;99.90
20242;DHT22;10279;46.388;8.116;2023-11-21T12:00:44;7.00;99.90
20242;DHT22;10279;46.388;8.116;2023-11-21T12:03:10;7.10;99.90
20242;DHT22;10279;46.388;8.116;2023-11-21T12:05:37;7.10;99.90
20242;DHT22;10279;46.388;8.116;2023-11-21T12:08:11;7.20;99.90
20242;DHT22;10279;46.388;8.116;2023-11-21T12:10:39;7.20;99.90
20242;DHT22;10279;46.388;8.116;2023-11-21T12:13:10;7.30;99.90
20242;DHT22;10279;46.388;8.116;2023-11-21T12:15:39;7.30;99.90
20242;DHT22;10279;46.388;8.116;2023-11-21T12:18:09;7.40;99.90
20242;DHT22;10279;46.388;8.116;2023-11-21T12:20:36;7.50;99.90
20242;DHT22;10279;46.388;8.116;2023-11-21T12:23:07;7.60;99.90
20242;DHT22;10279;46.388;8.116;2023-11-21T12:25:36;7.70;99.90
20242;DHT22;10279;46.388;8.116;2023-11-21T12:28:04;7.80;99.90
20242;DHT22;10279;46.388;8.116;2023-11-21T12:30:34;7.90;99.90
20242;DHT22;10279;46.388;8.116;2023-11-21T12:33:03;7.90;99.90
20242;DHT22;10279;46.388;8.116;2023-11-21T12:35:32;7.90;99.90
20242;DHT22;10279;46.388;8.116;2023-11-21T12:38:03;7.70;99.90
20242;DHT22;10279;46.388;8.116;2023-11-21T12:40:36;7.60;99.90
20242;DHT22;10279;46.388;8.116;2023-11-21T12:43:03;7.40;99.90
20242;DHT22;10279;46.388;8.116;2023-11-21T12:45:32;7.50;99.90
20242;DHT22;10279;46.388;8.116;2023-11-21T12:48:01;7.50;99.90
20242;DHT22;10279;46.388;8.116;2023-11-21T12:50:31;7.70;99.90
20242;DHT22;10279;46.388;8.116;2023-11-21T12:53:06;7.80;99.90
20242;DHT22;10279;46.388;8.116;2023-11-21T12:55:36;7.80;99.90
20242;DHT22;10279;46.388;8.116;2023-11-21T12:58:08;7.90;99.90
20242;DHT22;10279;46.388;8.116;2023-11-21T13:00:47;7.90;99.90
20242;DHT22;10279;46.388;8.116;2023-11-21T13:03:16;7.90;99.90
20242;DHT22;10279;46.388;8.116;2023-11-21T13:05:49;8.00;99.90
20242;DHT22;10279;46.388;8.116;2023-11-21T13:08:23;8.10;99.90
20242;DHT22;10279;46.388;8.116;2023-11-21T13:10:53;8.20;99.90
20242;DHT22;10279;46.388;8.116;2023-11-21T13:13:23;8.30;99.90
20242;DHT22;10279;46.388;8.116;2023-11-21T13:15:56;8.40;99.90
20242;DHT22;10279;46.388;8.116;2023-11-21T13:18:24;8.50;99.90
20242;DHT22;10279;46.388;8.116;2023-11-21T13:20:58;8.60;99.90
20242;DHT22;10279;46.388;8.116;2023-11-21T13:23:26;8.70;99.90
20242;DHT22;10279;46.388;8.116;2023-11-21T13:25:54;8.70;99.90
20242;DHT22;10279;46.388;8.116;2023-11-21T13:28:34;8.60;99.90
20242;DHT22;10279;46.388;8.116;2023-11-21T13:31:04;8.50;99.90
20242;DHT22;10279;46.388;8.116;2023-11-21T13:33:49;8.30;99.90
20242;DHT22;10279;46.388;8.116;2023-11-21T13:36:25;8.20;99.90
20242;DHT22;10279;46.388;8.116;2023-11-21T13:38:52;8.20;99.90
20242;DHT22;10279;46.388;8.116;2023-11-21T13:41:20;8.30;99.90
20242;DHT22;10279;46.388;8.116;2023-11-21T13:43:55;8.30;99.90
20242;DHT22;10279;46.388;8.116;2023-11-21T13:46:30;8.20;99.90
20242;DHT22;10279;46.388;8.116;2023-11-21T13:49:04;8.10;99.90
20242;DHT22;10279;46.388;8.116;2023-11-21T13:51:37;8.10;99.90
20242;DHT22;10279;46.388;8.116;2023-11-21T13:54:10;8.10;99.90
20242;DHT22;10279;46.388;8.116;2023-11-21T13:56:37;8.20;99.90
20242;DHT22;10279;46.388;8.116;2023-11-21T13:59:07;8.20;99.90
20242;DHT22;10279;46.388;8.116;2023-11-21T14:01:55;8.20;99.90
20242;DHT22;10279;46.388;8.116;2023-11-21T14:04:25;8.20;99.90
20242;DHT22;10279;46.388;8.116;2023-11-21T14:06:58;8.20;99.90
20242;DHT22;10279;46.388;8.116;2023-11-21T14:09:29;8.10;99.90
20242;DHT22;10279;46.388;8.116;2023-11-21T14:12:11;8.10;99.90
20242;DHT22;10279;46.388;8.116;2023-11-21T14:14:41;8.10;99.90
20242;DHT22;10279;46.388;8.116;2023-11-21T14:17:08;8.10;99.90
20242;DHT22;10279;46.388;8.116;2023-11-21T14:19:37;8.20;99.90
20242;DHT22;10279;46.388;8.116;2023-11-21T14:22:10;8.20;99.90
20242;DHT22;10279;46.388;8.116;2023-11-21T14:24:38;8.30;99.90
20242;DHT22;10279;46.388;8.116;2023-11-21T14:27:11;8.30;99.90
20242;DHT22;10279;46.388;8.116;2023-11-21T14:29:38;8.10;99.90
20242;DHT22;10279;46.388;8.116;2023-11-21T14:32:09;8.10;99.90
20242;DHT22;10279;46.388;8.116;2023-11-21T14:34:36;8.00;99.90
20242;DHT22;10279;46.388;8.116;2023-11-21T14:37:04;7.80;99.90
20242;DHT22;10279;46.388;8.116;2023-11-21T14:39:31;7.70;99.90
20242;DHT22;10279;46.388;8.116;2023-11-21T14:42:02;7.60;99.90
20242;DHT22;10279;46.388;8.116;2023-11-21T14:44:30;7.40;99.90
20242;DHT22;10279;46.388;8.116;2023-11-21T14:47:02;7.40;99.90
20242;DHT22;10279;46.388;8.116;2023-11-21T14:49:34;7.40;99.90
20242;DHT22;10279;46.388;8.116;2023-11-21T14:52:21;7.30;99.90
20242;DHT22;10279;46.388;8.116;2023-11-21T14:55:01;7.30;99.90
20242;DHT22;10279;46.388;8.116;2023-11-21T14:57:47;7.30;99.90
20242;DHT22;10279;46.388;8.116;2023-11-21T15:00:18;7.40;99.90
20242;DHT22;10279;46.388;8.116;2023-11-21T15:03:02;7.40;99.90
20242;DHT22;10279;46.388;8.116;2023-11-21T15:05:31;7.50;99.90
20242;DHT22;10279;46.388;8.116;2023-11-21T15:07:58;7.50;99.90
20242;DHT22;10279;46.388;8.116;2023-11-21T15:10:41;7.60;99.90
20242;DHT22;10279;46.388;8.116;2023-11-21T15:13:16;7.60;99.90
20242;DHT22;10279;46.388;8.116;2023-11-21T15:15:43;7.60;99.90
20242;DHT22;10279;46.388;8.116;2023-11-21T15:18:10;7.60;99.90
20242;DHT22;10279;46.388;8.116;2023-11-21T15:20:41;7.60;99.90
20242;DHT22;10279;46.388;8.116;2023-11-21T15:23:11;7.60;99.90
20242;DHT22;10279;46.388;8.116;2023-11-21T15:25:39;7.60;99.90
20242;DHT22;10279;46.388;8.116;2023-11-21T15:28:07;7.50;99.90
20242;DHT22;10279;46.388;8.116;2023-11-21T15:30:34;7.50;99.90
20242;DHT22;10279;46.388;8.116;2023-11-21T15:33:02;7.50;99.90
20242;DHT22;10279;46.388;8.116;2023-11-21T15:35:30;7.50;99.90
20242;DHT22;10279;46.388;8.116;2023-11-21T15:37:59;7.50;99.90
20242;DHT22;10279;46.388;8.116;2023-11-21T15:40:27;7.40;99.90
20242;DHT22;10279;46.388;8.116;2023-11-21T15:42:54;7.40;99.90
20242;DHT22;10279;46.388;8.116;2023-11-21T15:45:21;7.40;99.90
20242;DHT22;10279;46.388;8.116;2023-11-21T15:47:52;7.40;99.90
20242;DHT22;10279;46.388;8.116;2023-11-21T15:50:24;7.30;99.90
20242;DHT22;10279;46.388;8.116;2023-11-21T15:52:51;7.30;99.90
20242;DHT22;10279;46.388;8.116;2023-11-21T15:55:26;7.30;99.90
20242;DHT22;10279;46.388;8.116;2023-11-21T15:57:54;7.30;99.90
20242;DHT22;10279;46.388;8.116;2023-11-21T16:00:24;7.30;99.90
20242;DHT22;10279;46.388;8.116;2023-11-21T16:02:51;7.20;99.90
20242;DHT22;10279;46.388;8.116;2023-11-21T16:05:22;7.20;99.90